This is the latest recevied weather packets stored in our database for station/object E7HQ-1. If no packets are shown the sender has not sent any weather packets the latest 10 day(s).
| Time | Temp. | Humidity | Pressure | Rain* | Wind** | Luminosity | Snow |
|---|---|---|---|---|---|---|---|
| 1777883334 | 20.56° C | 33% | 1029.9 hPa | - | - | - | - |
| 1777882434 | 20° C | 36% | 1029.8 hPa | - | - | - | - |
| 1777881533 | 18.89° C | 38% | 1029.8 hPa | - | - | - | - |
| 1777880633 | 17.78° C | 39% | 1029.8 hPa | - | - | - | - |
| 1777879733 | 17.22° C | 39% | 1029.7 hPa | - | - | - | - |
| 1777878833 | 16.11° C | 39% | 1029.6 hPa | - | - | - | - |
| 1777877933 | 15° C | 42% | 1029.8 hPa | - | - | - | - |
| 1777877032 | 14.44° C | 43% | 1029.7 hPa | - | - | - | - |
| 1777876132 | 13.89° C | 43% | 1029.7 hPa | - | - | - | - |
| 1777875232 | 13.33° C | 44% | 1029.7 hPa | - | - | - | - |
| 1777874332 | 12.78° C | 48% | 1029.7 hPa | - | - | - | - |
| 1777873431 | 11.67° C | 50% | 1029.7 hPa | - | - | - | - |
| 1777872537 | 10.56° C | 51% | 1029.7 hPa | - | - | - | - |
| 1777871637 | 9.44° C | 54% | 1029.8 hPa | - | - | - | - |
| 1777870737 | 8.89° C | 55% | 1029.7 hPa | - | - | - | - |
| 1777869836 | 9.44° C | 52% | 1029.6 hPa | - | - | - | - |
| 1777868936 | 9.44° C | 54% | 1029.6 hPa | - | - | - | - |
| 1777868036 | 8.89° C | 57% | 1029.6 hPa | - | - | - | - |
| 1777867136 | 8.89° C | 56% | 1029.4 hPa | - | - | - | - |
| 1777866236 | 8.89° C | 55% | 1029.4 hPa | - | - | - | - |
| 1777865335 | 9.44° C | 52% | 1029.3 hPa | - | - | - | - |
| 1777864435 | 10° C | 52% | 1029.1 hPa | - | - | - | - |
| 1777863535 | 10° C | 52% | 1029.2 hPa | - | - | - | - |
| 1777862635 | 9.44° C | 54% | 1029.3 hPa | - | - | - | - |
| 1777861734 | 8.89° C | 55% | 1029.3 hPa | - | - | - | - |
* Rain since midnight (hover to see other rain measurements)
** Current wind speed in m/s (hover to see current wind gust speed)